Time;durP1;ratioP1;P1;durP2;ratioP2;P2;SDS_P1;SDS_P2;PMS_P1;PMS_P2;Temp;Humidity;BMP_temperature;BMP_pressure;BME280_temperature;BME280_humidity;BME280_pressure;Samples;Min_cycle;Max_cycle;Signal;HPM_P1;HPM_P2
2023/12/11 00:00:31;;;;;;;19.08;2.85;;;8.10;99.90;;;;;;5027734;28;20061;-91
2023/12/11 00:02:57;;;;;;;9.07;2.47;;;8.10;99.90;;;;;;5023074;28;20541;-87
2023/12/11 00:05:22;;;;;;;14.93;3.75;;;8.10;99.90;;;;;;5024497;28;20242;-84
2023/12/11 00:07:48;;;;;;;10.45;2.70;;;8.10;99.90;;;;;;5023515;28;20388;-88
2023/12/11 00:10:14;;;;;;;13.55;2.42;;;8.20;99.90;;;;;;4999108;28;20489;-90
2023/12/11 00:12:40;;;;;;;6.82;2.10;;;8.20;99.90;;;;;;5013891;28;20030;-89
2023/12/11 00:15:06;;;;;;;9.38;2.33;;;8.20;99.90;;;;;;5023720;28;20549;-85
2023/12/11 00:17:31;;;;;;;10.18;2.45;;;8.20;99.90;;;;;;5019613;28;20029;-85
2023/12/11 00:19:57;;;;;;;10.45;2.38;;;8.20;99.90;;;;;;5016757;28;20029;-84
2023/12/11 00:22:23;;;;;;;13.07;2.88;;;8.30;99.90;;;;;;5026371;28;20095;-85
2023/12/11 00:24:48;;;;;;;8.57;2.42;;;8.30;99.90;;;;;;5020538;28;20018;-85
2023/12/11 00:27:14;;;;;;;14.82;2.58;;;8.30;99.90;;;;;;5021869;28;20032;-82
2023/12/11 00:29:39;;;;;;;12.82;3.03;;;8.30;99.90;;;;;;5016910;28;20041;-90
2023/12/11 00:32:05;;;;;;;7.40;2.40;;;8.40;99.90;;;;;;5022396;28;20029;-89
2023/12/11 00:34:32;;;;;;;12.30;2.97;;;8.50;99.90;;;;;;5023520;28;20048;-83
2023/12/11 00:37:01;;;;;;;22.15;4.53;;;8.50;99.90;;;;;;5016980;28;20391;-92
2023/12/11 00:39:28;;;;;;;10.30;2.30;;;8.50;99.90;;;;;;5017921;28;20025;-88
2023/12/11 00:41:53;;;;;;;7.38;2.92;;;8.60;99.90;;;;;;5022881;28;20053;-89
2023/12/11 00:44:19;;;;;;;19.02;2.70;;;8.60;99.90;;;;;;5024678;28;20026;-86
2023/12/11 00:46:45;;;;;;;14.27;2.78;;;8.60;99.90;;;;;;5026373;28;20038;-88
2023/12/11 00:49:10;;;;;;;11.13;2.63;;;8.60;99.90;;;;;;5023964;28;20036;-92
2023/12/11 00:51:36;;;;;;;19.95;3.47;;;8.60;99.90;;;;;;5021471;28;20025;-86
2023/12/11 00:54:02;;;;;;;15.55;2.47;;;8.70;99.90;;;;;;5013642;28;20021;-84
2023/12/11 00:56:28;;;;;;;16.40;2.60;;;8.80;99.90;;;;;;5021777;28;20029;-85
2023/12/11 00:58:54;;;;;;;17.65;2.83;;;8.80;99.90;;;;;;5022335;28;20052;-90
2023/12/11 01:01:19;;;;;;;12.57;3.00;;;8.70;99.90;;;;;;4995181;28;20046;-90
2023/12/11 01:03:45;;;;;;;16.95;2.67;;;8.70;99.90;;;;;;5020484;28;20501;-87
2023/12/11 01:06:10;;;;;;;18.95;2.95;;;8.60;99.90;;;;;;5022026;28;20045;-90
2023/12/11 01:08:39;;;;;;;12.45;2.03;;;8.60;99.90;;;;;;5023561;28;20017;-85
2023/12/11 01:11:05;;;;;;;20.15;4.55;;;8.70;99.90;;;;;;5023789;28;20056;-85
2023/12/11 01:13:32;;;;;;;15.23;3.10;;;8.70;99.90;;;;;;5024537;28;20032;-83
2023/12/11 01:15:58;;;;;;;11.13;2.58;;;8.70;99.90;;;;;;5019278;28;20057;-87
2023/12/11 01:18:24;;;;;;;17.60;2.55;;;8.70;99.90;;;;;;5019678;28;20052;-84
2023/12/11 01:20:50;;;;;;;25.65;4.15;;;8.60;99.90;;;;;;5018934;28;20029;-87
2023/12/11 01:23:17;;;;;;;11.50;2.38;;;8.70;99.90;;;;;;5021798;28;20037;-87
2023/12/11 01:25:46;;;;;;;10.98;2.10;;;8.70;99.90;;;;;;5024567;28;20037;-90
2023/12/11 01:28:11;;;;;;;11.15;2.47;;;8.70;99.90;;;;;;5015972;28;20036;-86
2023/12/11 01:30:38;;;;;;;14.63;2.30;;;8.70;99.90;;;;;;5013801;28;20358;-84
2023/12/11 01:33:03;;;;;;;14.35;2.90;;;8.80;99.90;;;;;;5024465;28;20075;-84
2023/12/11 01:35:29;;;;;;;16.10;3.05;;;8.70;99.90;;;;;;5023867;28;20045;-81
2023/12/11 01:37:55;;;;;;;14.30;3.22;;;8.70;99.90;;;;;;5020413;28;20112;-82
2023/12/11 01:40:20;;;;;;;15.13;2.40;;;8.60;99.90;;;;;;5025874;28;20029;-85
2023/12/11 01:42:46;;;;;;;9.02;2.53;;;8.60;99.90;;;;;;5010346;28;20066;-87
2023/12/11 01:45:12;;;;;;;14.70;2.83;;;8.60;99.90;;;;;;5002723;28;20531;-92
2023/12/11 01:47:39;;;;;;;9.40;2.60;;;8.70;99.90;;;;;;5006477;28;20431;-94
2023/12/11 01:50:08;;;;;;;20.90;2.55;;;8.70;99.90;;;;;;5008434;28;20183;-87
2023/12/11 01:52:34;;;;;;;18.98;3.25;;;8.80;99.90;;;;;;4991983;28;20502;-92
2023/12/11 01:55:01;;;;;;;15.60;2.40;;;8.80;99.90;;;;;;5005920;28;20391;-83
2023/12/11 01:57:27;;;;;;;16.88;2.95;;;8.70;99.90;;;;;;5000293;28;20109;-84
2023/12/11 01:59:56;;;;;;;9.07;2.20;;;8.70;99.90;;;;;;5002317;28;20043;-90
2023/12/11 02:02:23;;;;;;;17.38;3.03;;;8.70;99.90;;;;;;5003049;28;20049;-89
2023/12/11 02:04:50;;;;;;;9.90;2.60;;;8.80;99.90;;;;;;4986244;28;20049;-84
2023/12/11 02:07:16;;;;;;;11.38;2.70;;;8.80;99.90;;;;;;5003877;28;20026;-85
2023/12/11 02:09:42;;;;;;;12.85;3.50;;;8.80;99.90;;;;;;5006066;28;20104;-91
2023/12/11 02:12:07;;;;;;;20.30;3.80;;;8.80;99.90;;;;;;5000946;28;20066;-86
2023/12/11 02:14:33;;;;;;;15.38;3.85;;;8.70;99.90;;;;;;5000332;28;20021;-85
2023/12/11 02:16:59;;;;;;;18.77;3.05;;;8.70;99.90;;;;;;5005124;28;20076;-88
2023/12/11 02:19:24;;;;;;;20.75;3.22;;;8.70;99.90;;;;;;5002719;28;20022;-85
2023/12/11 02:21:51;;;;;;;14.63;3.25;;;8.70;99.90;;;;;;5006740;28;20538;-85
2023/12/11 02:24:23;;;;;;;15.20;2.72;;;8.70;99.90;;;;;;5008677;28;20467;-85
2023/12/11 02:26:49;;;;;;;20.65;2.72;;;8.70;99.90;;;;;;5006562;28;20026;-88
2023/12/11 02:29:15;;;;;;;22.13;3.13;;;8.70;99.90;;;;;;5001785;28;20471;-88
2023/12/11 02:31:40;;;;;;;21.05;5.53;;;8.70;99.90;;;;;;5003832;28;20030;-90
2023/12/11 02:34:08;;;;;;;14.50;3.20;;;8.70;99.90;;;;;;5006643;28;20054;-86
2023/12/11 02:36:33;;;;;;;12.05;3.08;;;8.70;99.90;;;;;;5008800;28;20026;-88
2023/12/11 02:38:59;;;;;;;13.27;3.05;;;8.80;99.90;;;;;;4998681;28;20033;-88
2023/12/11 02:41:25;;;;;;;23.75;4.07;;;8.80;99.90;;;;;;5005674;28;20050;-89
2023/12/11 02:43:51;;;;;;;13.90;2.67;;;8.80;99.90;;;;;;5026478;28;20402;-92
2023/12/11 02:46:17;;;;;;;16.98;2.85;;;8.90;99.90;;;;;;5019580;28;20041;-87
2023/12/11 02:48:43;;;;;;;16.25;2.45;;;8.90;99.90;;;;;;5026314;28;20037;-84
2023/12/11 02:51:10;;;;;;;19.70;2.70;;;8.80;99.90;;;;;;5025807;28;20033;-88
2023/12/11 02:53:36;;;;;;;23.42;4.03;;;8.80;99.90;;;;;;5025349;28;20034;-85
2023/12/11 02:56:01;;;;;;;15.38;2.72;;;8.70;99.90;;;;;;5023962;28;20376;-84
2023/12/11 02:58:27;;;;;;;20.65;4.85;;;8.70;99.90;;;;;;5022723;28;20471;-85
2023/12/11 03:00:53;;;;;;;18.42;2.67;;;8.70;99.90;;;;;;5025373;28;20022;-87
2023/12/11 03:03:18;;;;;;;13.25;2.45;;;8.60;99.90;;;;;;5026808;28;20045;-87
2023/12/11 03:05:44;;;;;;;23.95;3.20;;;8.60;99.90;;;;;;5007608;28;20033;-85
2023/12/11 03:08:10;;;;;;;23.67;4.35;;;8.70;99.90;;;;;;5005620;28;20022;-90
2023/12/11 03:10:39;;;;;;;18.75;3.35;;;8.60;99.90;;;;;;5024683;28;20509;-84
2023/12/11 03:13:05;;;;;;;33.10;3.95;;;8.60;99.90;;;;;;5023128;28;20391;-84
2023/12/11 03:15:31;;;;;;;21.20;2.75;;;8.70;99.90;;;;;;5023776;28;20032;-83
2023/12/11 03:17:57;;;;;;;29.70;3.83;;;8.70;99.90;;;;;;5015296;28;20029;-92
2023/12/11 03:20:23;;;;;;;13.93;3.22;;;8.70;99.90;;;;;;5022841;28;20048;-84
2023/12/11 03:22:49;;;;;;;18.90;2.83;;;8.80;99.90;;;;;;5023668;28;20041;-88
2023/12/11 03:25:15;;;;;;;11.02;3.22;;;8.80;99.90;;;;;;5026257;28;20067;-87
2023/12/11 03:27:40;;;;;;;25.63;5.72;;;8.80;99.90;;;;;;5024846;28;20045;-89
2023/12/11 03:30:07;;;;;;;20.00;3.28;;;8.80;99.90;;;;;;5009555;28;20064;-83
2023/12/11 03:32:32;;;;;;;21.83;3.40;;;8.80;99.90;;;;;;5019424;28;20026;-85
2023/12/11 03:34:59;;;;;;;13.98;2.72;;;8.80;99.90;;;;;;5022268;28;20030;-90
2023/12/11 03:37:24;;;;;;;29.15;3.85;;;8.80;99.90;;;;;;5017436;28;20526;-85
2023/12/11 03:39:50;;;;;;;23.55;3.50;;;8.80;99.90;;;;;;5005143;28;20028;-86
2023/12/11 03:42:16;;;;;;;13.60;3.03;;;8.70;99.90;;;;;;5019062;28;20058;-86
2023/12/11 03:44:41;;;;;;;25.00;4.05;;;8.70;99.90;;;;;;5011399;28;20037;-85
2023/12/11 03:47:07;;;;;;;23.15;3.45;;;8.80;99.90;;;;;;5005223;28;20164;-89
2023/12/11 03:49:33;;;;;;;14.70;2.97;;;8.80;99.90;;;;;;5009974;28;20498;-92
2023/12/11 03:51:59;;;;;;;18.73;3.90;;;8.80;99.90;;;;;;5001940;28;20030;-81
2023/12/11 03:54:24;;;;;;;19.38;2.95;;;8.80;99.90;;;;;;4999548;28;20167;-83
2023/12/11 03:56:50;;;;;;;16.58;2.85;;;8.80;99.90;;;;;;5005350;28;20034;-84
2023/12/11 03:59:15;;;;;;;22.00;3.38;;;8.80;99.90;;;;;;5012498;28;20045;-82
2023/12/11 04:01:41;;;;;;;16.08;3.10;;;8.80;99.90;;;;;;5008720;28;20390;-86
2023/12/11 04:04:07;;;;;;;19.25;3.47;;;8.70;99.90;;;;;;5008525;28;20017;-82
2023/12/11 04:06:32;;;;;;;12.40;2.55;;;8.80;99.90;;;;;;5012562;28;20121;-83
2023/12/11 04:08:58;;;;;;;18.17;3.15;;;8.70;99.90;;;;;;5014478;28;20471;-82
2023/12/11 04:11:23;;;;;;;21.73;3.72;;;8.70;99.90;;;;;;5005765;28;20028;-92
2023/12/11 04:13:49;;;;;;;20.35;2.67;;;8.70;99.90;;;;;;4989517;28;20080;-91
2023/12/11 04:16:15;;;;;;;18.45;3.58;;;8.70;99.90;;;;;;5012927;28;20030;-85
2023/12/11 04:18:42;;;;;;;12.50;2.70;;;8.70;99.90;;;;;;5000717;28;20145;-82
2023/12/11 04:21:07;;;;;;;17.83;3.95;;;8.60;99.90;;;;;;5011351;28;20584;-83
2023/12/11 04:23:33;;;;;;;19.00;4.45;;;8.60;99.90;;;;;;5006349;28;20038;-91
2023/12/11 04:25:59;;;;;;;15.98;2.67;;;8.60;99.90;;;;;;5013463;28;20375;-92
2023/12/11 04:28:28;;;;;;;24.63;3.58;;;8.60;99.90;;;;;;4999018;28;20230;-85
2023/12/11 04:30:54;;;;;;;23.60;3.65;;;8.60;99.90;;;;;;5008660;28;20159;-81
2023/12/11 04:33:20;;;;;;;31.52;5.05;;;8.60;99.90;;;;;;4992315;28;20025;-83
2023/12/11 04:35:47;;;;;;;16.60;4.15;;;8.60;99.90;;;;;;5010956;28;20033;-85
2023/12/11 04:38:16;;;;;;;29.25;3.47;;;8.60;99.90;;;;;;4989921;28;20018;-85
2023/12/11 04:40:42;;;;;;;21.45;3.47;;;8.60;99.90;;;;;;5000735;28;20034;-84
2023/12/11 04:43:07;;;;;;;26.48;4.00;;;8.60;99.90;;;;;;5013404;28;20861;-88
2023/12/11 04:45:34;;;;;;;20.45;4.00;;;8.50;99.90;;;;;;5020077;28;20091;-86
2023/12/11 04:48:00;;;;;;;27.92;3.97;;;8.60;99.90;;;;;;5022758;28;20434;-83
2023/12/11 04:50:25;;;;;;;24.45;3.72;;;8.50;99.90;;;;;;5023465;28;20548;-84
2023/12/11 04:52:51;;;;;;;25.38;3.50;;;8.50;99.90;;;;;;5016435;28;20486;-83
2023/12/11 04:55:19;;;;;;;30.55;6.55;;;8.50;99.90;;;;;;5021863;28;20022;-82
2023/12/11 04:57:44;;;;;;;28.38;3.78;;;8.50;99.90;;;;;;5003009;28;20117;-86
2023/12/11 05:00:10;;;;;;;25.08;4.43;;;8.40;99.90;;;;;;5017133;28;20142;-84
2023/12/11 05:02:36;;;;;;;21.63;4.10;;;8.40;99.90;;;;;;5021837;28;20052;-84
2023/12/11 05:05:02;;;;;;;23.67;4.03;;;8.50;99.90;;;;;;5025199;28;20025;-82
2023/12/11 05:07:28;;;;;;;20.60;2.95;;;8.50;99.90;;;;;;5023837;28;20467;-82
2023/12/11 05:09:54;;;;;;;32.78;4.68;;;8.50;99.90;;;;;;5023330;28;20021;-82
2023/12/11 05:12:20;;;;;;;21.02;3.65;;;8.50;99.90;;;;;;5014826;28;20022;-87
2023/12/11 05:14:45;;;;;;;27.15;5.22;;;8.40;99.90;;;;;;5020023;28;20071;-82
2023/12/11 05:17:11;;;;;;;26.92;3.45;;;8.40;99.90;;;;;;5019548;28;20064;-82
2023/12/11 05:19:36;;;;;;;27.65;4.45;;;8.30;99.90;;;;;;5005446;28;20467;-82
2023/12/11 05:22:03;;;;;;;33.80;5.68;;;8.30;99.90;;;;;;5020019;28;20037;-82
2023/12/11 05:24:29;;;;;;;30.98;4.07;;;8.30;99.90;;;;;;5019576;28;20065;-86
2023/12/11 05:26:55;;;;;;;33.28;4.45;;;8.30;99.90;;;;;;5015972;28;20238;-83
2023/12/11 05:29:20;;;;;;;22.92;3.28;;;8.30;99.90;;;;;;5021695;28;20028;-83
2023/12/11 05:31:46;;;;;;;28.85;4.35;;;8.30;99.90;;;;;;5016244;28;20030;-86
2023/12/11 05:34:13;;;;;;;31.55;4.85;;;8.20;99.90;;;;;;5016404;28;20052;-89
2023/12/11 05:36:38;;;;;;;27.55;4.55;;;8.20;99.90;;;;;;5022157;28;20112;-86
2023/12/11 05:39:04;;;;;;;29.42;4.60;;;8.20;99.90;;;;;;5002675;28;20457;-90
2023/12/11 05:41:29;;;;;;;26.00;4.30;;;8.20;99.90;;;;;;5020843;28;20049;-83
2023/12/11 05:43:58;;;;;;;28.80;4.90;;;8.20;99.90;;;;;;5018099;28;20120;-84
2023/12/11 05:46:23;;;;;;;36.78;5.53;;;8.20;99.90;;;;;;5021894;28;20079;-83
2023/12/11 05:48:49;;;;;;;21.77;3.38;;;8.20;99.90;;;;;;5019209;28;20033;-88
2023/12/11 05:51:14;;;;;;;26.67;3.80;;;8.20;99.90;;;;;;5024189;28;20026;-83
2023/12/11 05:53:40;;;;;;;31.67;4.85;;;8.10;99.90;;;;;;5015692;28;20035;-82
2023/12/11 05:56:06;;;;;;;35.22;4.82;;;8.10;99.90;;;;;;5016512;28;20080;-83
2023/12/11 05:58:32;;;;;;;29.02;4.97;;;8.10;99.90;;;;;;5018331;28;20442;-84
2023/12/11 06:00:57;;;;;;;30.48;5.90;;;8.10;99.90;;;;;;5016820;28;20034;-82
2023/12/11 06:03:23;;;;;;;34.42;5.43;;;8.00;99.90;;;;;;5021361;28;20568;-84
2023/12/11 06:05:48;;;;;;;27.80;4.97;;;8.00;99.90;;;;;;5021975;28;20068;-83
2023/12/11 06:08:14;;;;;;;28.92;4.18;;;8.10;99.90;;;;;;5023014;28;20462;-84
2023/12/11 06:10:39;;;;;;;28.10;6.60;;;8.00;99.90;;;;;;5023169;28;20021;-82
2023/12/11 06:13:05;;;;;;;29.90;4.40;;;8.00;99.90;;;;;;5005640;28;20462;-84
2023/12/11 06:15:30;;;;;;;30.92;4.90;;;8.00;99.90;;;;;;5020153;28;20087;-87
2023/12/11 06:17:56;;;;;;;31.35;4.68;;;8.00;99.90;;;;;;5018733;28;20018;-82
2023/12/11 06:20:22;;;;;;;45.33;6.82;;;8.00;99.90;;;;;;5000591;28;20459;-82
2023/12/11 06:22:51;;;;;;;25.90;6.43;;;8.00;99.90;;;;;;5018713;28;20136;-86
2023/12/11 06:25:16;;;;;;;36.25;4.63;;;8.00;99.90;;;;;;5025718;28;20464;-83
2023/12/11 06:27:42;;;;;;;17.55;3.35;;;8.00;99.90;;;;;;5024286;28;20116;-83
2023/12/11 06:30:08;;;;;;;33.92;4.30;;;7.90;99.90;;;;;;5025047;28;20460;-90
2023/12/11 06:32:34;;;;;;;27.00;4.45;;;7.90;99.90;;;;;;5019710;28;20025;-84
2023/12/11 06:35:00;;;;;;;33.10;4.00;;;7.90;99.90;;;;;;5022568;28;20025;-83
2023/12/11 06:37:25;;;;;;;21.20;3.22;;;8.00;99.90;;;;;;5024820;28;20021;-83
2023/12/11 06:39:51;;;;;;;27.50;4.20;;;8.00;99.90;;;;;;5018418;28;20125;-84
2023/12/11 06:42:16;;;;;;;25.38;4.50;;;8.00;99.90;;;;;;5023873;28;20045;-83
2023/12/11 06:44:42;;;;;;;35.05;5.70;;;8.10;99.90;;;;;;5015711;28;20116;-85
2023/12/11 06:47:08;;;;;;;19.77;3.70;;;8.00;99.90;;;;;;5021830;28;20029;-82
2023/12/11 06:49:34;;;;;;;31.38;4.43;;;8.10;99.90;;;;;;5026607;28;20029;-86
2023/12/11 06:51:59;;;;;;;32.15;4.68;;;8.10;99.90;;;;;;5025914;28;20035;-85
2023/12/11 06:54:25;;;;;;;27.02;3.83;;;8.10;99.90;;;;;;5022525;28;20113;-81
2023/12/11 06:56:51;;;;;;;26.80;3.90;;;8.10;99.90;;;;;;5019862;28;20036;-83
2023/12/11 06:59:16;;;;;;;29.60;4.78;;;8.10;99.90;;;;;;5021259;28;20405;-81
2023/12/11 07:01:42;;;;;;;19.45;3.28;;;8.00;99.90;;;;;;5024827;28;20037;-81
2023/12/11 07:04:07;;;;;;;14.32;3.20;;;8.10;99.90;;;;;;5025905;28;20504;-82
2023/12/11 07:06:33;;;;;;;22.77;4.55;;;8.00;99.90;;;;;;5026068;28;20025;-85
2023/12/11 07:09:02;;;;;;;24.95;3.75;;;8.00;99.90;;;;;;5024656;28;20041;-88
2023/12/11 07:11:28;;;;;;;21.58;4.07;;;8.00;99.90;;;;;;5024712;28;20382;-82
2023/12/11 07:13:54;;;;;;;27.98;4.47;;;8.10;99.90;;;;;;5023865;28;20316;-82
2023/12/11 07:16:23;;;;;;;23.73;3.35;;;8.10;99.90;;;;;;5023793;28;20017;-86
2023/12/11 07:18:49;;;;;;;14.77;3.55;;;8.20;99.90;;;;;;5022638;28;20041;-91
2023/12/11 07:21:14;;;;;;;20.67;4.10;;;8.20;99.90;;;;;;5025846;28;21008;-84
2023/12/11 07:23:40;;;;;;;29.60;3.70;;;8.20;99.90;;;;;;5026706;28;20501;-81
2023/12/11 07:26:08;;;;;;;23.15;3.78;;;8.20;99.90;;;;;;5018390;28;20076;-84
2023/12/11 07:28:36;;;;;;;16.40;3.42;;;8.20;99.90;;;;;;5020561;28;20042;-87
2023/12/11 07:31:03;;;;;;;17.33;4.22;;;8.20;99.90;;;;;;5024348;28;20388;-82
2023/12/11 07:33:28;;;;;;;21.75;2.67;;;8.10;99.90;;;;;;5022927;28;20417;-88
2023/12/11 07:35:54;;;;;;;24.00;4.10;;;8.10;99.90;;;;;;5023117;28;20026;-84
2023/12/11 07:38:19;;;;;;;26.35;4.15;;;8.10;99.90;;;;;;5003402;28;20033;-85
2023/12/11 07:40:46;;;;;;;15.13;2.85;;;8.00;99.90;;;;;;5023714;28;20067;-80
2023/12/11 07:43:30;;;;;;;25.48;3.33;;;8.00;99.90;;;;;;5023421;28;20056;-82
2023/12/11 07:45:56;;;;;;;23.25;3.38;;;8.10;99.90;;;;;;5022960;28;20025;-82
2023/12/11 07:48:21;;;;;;;21.52;4.03;;;8.10;99.90;;;;;;5023526;28;20044;-83
2023/12/11 07:50:50;;;;;;;28.98;4.45;;;8.20;99.90;;;;;;5024638;28;20041;-90
2023/12/11 07:53:16;;;;;;;34.22;5.25;;;8.20;99.90;;;;;;5020459;28;20407;-86
2023/12/11 07:55:41;;;;;;;24.38;3.72;;;8.30;99.90;;;;;;5018432;28;20038;-83
2023/12/11 07:58:07;;;;;;;27.13;3.45;;;8.30;99.90;;;;;;5025030;28;20666;-91
2023/12/11 08:00:33;;;;;;;16.55;3.22;;;8.40;99.90;;;;;;5024457;28;20037;-84
2023/12/11 08:02:59;;;;;;;27.15;3.80;;;8.40;99.90;;;;;;5015014;28;20486;-82
2023/12/11 08:05:25;;;;;;;31.40;4.10;;;8.50;99.90;;;;;;5021225;28;20026;-82
2023/12/11 08:07:53;;;;;;;16.20;2.97;;;8.60;99.90;;;;;;5027759;28;20043;-84
2023/12/11 08:10:19;;;;;;;19.00;3.30;;;8.50;99.90;;;;;;5020150;28;20053;-85
2023/12/11 08:12:50;;;;;;;18.98;3.10;;;8.50;99.90;;;;;;5023043;28;20890;-84
2023/12/11 08:15:16;;;;;;;20.52;3.90;;;8.50;99.90;;;;;;5023971;28;20479;-89
2023/12/11 08:17:41;;;;;;;16.75;2.97;;;8.50;99.90;;;;;;5020235;28;20029;-91
2023/12/11 08:20:09;;;;;;;17.58;2.38;;;8.50;99.90;;;;;;5012900;28;21322;-81
2023/12/11 08:22:35;;;;;;;21.35;2.72;;;8.50;99.90;;;;;;5021004;28;20121;-86
2023/12/11 08:25:00;;;;;;;14.50;2.80;;;8.50;99.90;;;;;;5014241;28;20109;-83
2023/12/11 08:27:26;;;;;;;17.90;3.65;;;8.40;99.90;;;;;;5021369;28;20112;-83
2023/12/11 08:29:51;;;;;;;20.05;3.30;;;8.40;99.90;;;;;;5025596;28;20029;-82
2023/12/11 08:32:17;;;;;;;21.38;2.88;;;8.40;99.90;;;;;;5026009;28;20441;-81
2023/12/11 08:34:43;;;;;;;23.00;3.72;;;8.40;99.90;;;;;;5026534;28;20394;-82
2023/12/11 08:37:08;;;;;;;20.65;3.45;;;8.40;99.90;;;;;;5024802;28;20287;-83
2023/12/11 08:39:34;;;;;;;24.98;4.05;;;8.40;99.90;;;;;;5024539;28;20048;-87
2023/12/11 08:41:59;;;;;;;26.50;5.70;;;8.40;99.90;;;;;;5015211;28;20054;-81
2023/12/11 08:44:25;;;;;;;14.45;3.33;;;8.40;99.90;;;;;;5002923;28;20484;-82
2023/12/11 08:46:51;;;;;;;17.63;3.70;;;8.40;99.90;;;;;;5002578;28;20113;-82
2023/12/11 08:49:17;;;;;;;25.55;4.95;;;8.40;99.90;;;;;;4998749;28;20022;-89
2023/12/11 08:51:43;;;;;;;21.65;6.95;;;8.50;99.90;;;;;;4998385;28;20026;-84
2023/12/11 08:54:08;;;;;;;11.93;3.10;;;8.40;99.90;;;;;;4993223;28;20044;-81
2023/12/11 08:56:34;;;;;;;21.98;2.88;;;8.50;99.90;;;;;;4997889;28;20037;-86
2023/12/11 08:59:00;;;;;;;20.70;3.10;;;8.50;99.90;;;;;;4981216;28;20035;-86
2023/12/11 09:01:26;;;;;;;19.05;4.10;;;8.50;99.90;;;;;;4993940;28;20026;-83
2023/12/11 09:03:51;;;;;;;22.08;4.35;;;8.50;99.90;;;;;;4981033;28;20038;-83
2023/12/11 09:06:17;;;;;;;11.90;3.72;;;8.50;99.90;;;;;;4982124;28;20025;-82
2023/12/11 09:08:44;;;;;;;14.20;3.25;;;8.50;99.90;;;;;;4995342;28;20034;-87
2023/12/11 09:11:09;;;;;;;16.92;3.22;;;8.50;99.90;;;;;;5001114;28;20028;-82
2023/12/11 09:13:35;;;;;;;17.63;7.40;;;8.40;99.90;;;;;;5004928;28;20026;-83
2023/12/11 09:16:01;;;;;;;20.98;5.88;;;8.40;99.90;;;;;;5002715;28;20026;-83
2023/12/11 09:18:26;;;;;;;22.35;4.65;;;8.40;99.90;;;;;;4991282;28;20025;-80
2023/12/11 09:20:52;;;;;;;18.98;4.18;;;8.50;99.90;;;;;;5001207;28;20032;-81
2023/12/11 09:23:18;;;;;;;12.88;3.22;;;8.60;99.90;;;;;;5000826;28;20033;-86
2023/12/11 09:25:47;;;;;;;13.13;2.33;;;8.60;99.90;;;;;;4999249;28;20030;-87
2023/12/11 09:28:14;;;;;;;9.35;2.97;;;8.60;99.90;;;;;;4978501;28;20449;-87
2023/12/11 09:30:40;;;;;;;27.33;2.97;;;8.70;99.90;;;;;;4999538;28;20026;-80
2023/12/11 09:33:05;;;;;;;19.40;2.90;;;8.70;99.90;;;;;;4993219;28;20032;-83
2023/12/11 09:35:31;;;;;;;24.13;3.38;;;8.80;99.90;;;;;;4997623;28;20026;-86
2023/12/11 09:37:56;;;;;;;21.23;3.05;;;8.80;99.90;;;;;;4996044;28;20082;-81
2023/12/11 09:40:22;;;;;;;23.27;3.25;;;8.80;99.90;;;;;;4999604;28;20034;-82
2023/12/11 09:42:51;;;;;;;29.20;4.00;;;8.80;99.90;;;;;;5013233;28;20068;-91
2023/12/11 09:45:19;;;;;;;24.73;4.07;;;8.80;99.90;;;;;;5021577;28;20025;-84
2023/12/11 09:47:58;;;;;;;15.43;2.83;;;8.80;99.90;;;;;;5020031;28;20354;-82
2023/12/11 09:50:27;;;;;;;12.32;3.20;;;8.80;99.90;;;;;;5020667;28;20030;-81
2023/12/11 09:52:54;;;;;;;20.55;3.33;;;8.80;99.90;;;;;;5021832;28;20087;-82
2023/12/11 09:55:20;;;;;;;14.02;2.90;;;8.80;99.90;;;;;;5022671;28;20390;-85
2023/12/11 09:57:46;;;;;;;14.27;3.03;;;8.80;99.90;;;;;;5025370;28;20022;-83
2023/12/11 10:00:12;;;;;;;17.73;3.38;;;8.80;99.90;;;;;;5019146;28;20021;-84
2023/12/11 10:02:40;;;;;;;16.00;2.67;;;8.90;99.90;;;;;;5028486;28;20033;-83
2023/12/11 10:05:10;;;;;;;17.10;2.90;;;8.90;99.90;;;;;;5020294;28;20551;-84
2023/12/11 10:07:42;;;;;;;21.35;3.38;;;8.90;99.90;;;;;;5023980;28;20017;-85
2023/12/11 10:10:31;;;;;;;20.15;3.35;;;8.90;99.90;;;;;;5023432;28;20031;-84
2023/12/11 10:12:58;;;;;;;14.20;2.67;;;9.10;99.90;;;;;;5027581;28;20093;-82
2023/12/11 10:15:29;;;;;;;9.50;2.58;;;9.10;99.90;;;;;;5025784;28;20021;-83
2023/12/11 10:18:09;;;;;;;16.42;3.30;;;9.10;99.90;;;;;;5023613;28;20342;-81
2023/12/11 10:20:36;;;;;;;15.68;2.70;;;9.20;99.90;;;;;;5019480;28;20044;-84
2023/12/11 10:23:16;;;;;;;16.42;2.67;;;9.20;99.90;;;;;;5021773;28;20041;-81
2023/12/11 10:25:45;;;;;;;9.57;2.15;;;9.10;99.90;;;;;;5023969;28;20041;-81
2023/12/11 10:28:13;;;;;;;10.77;2.25;;;9.10;99.90;;;;;;5020644;28;20030;-82
2023/12/11 10:30:53;;;;;;;15.23;2.22;;;9.20;99.90;;;;;;5007643;28;20252;-82
2023/12/11 10:33:27;;;;;;;9.63;2.83;;;9.20;99.90;;;;;;5022971;28;20068;-82
2023/12/11 10:36:12;;;;;;;15.05;2.15;;;9.20;99.90;;;;;;5015883;28;20065;-81
2023/12/11 10:38:38;;;;;;;12.18;2.22;;;9.10;99.90;;;;;;5022011;28;20364;-81
2023/12/11 10:41:05;;;;;;;12.50;2.67;;;9.10;99.90;;;;;;5022818;28;20021;-83
2023/12/11 10:43:41;;;;;;;12.20;2.20;;;9.20;99.90;;;;;;5019079;28;20033;-80
2023/12/11 10:46:08;;;;;;;11.27;2.33;;;9.20;99.90;;;;;;5021653;28;20137;-84
2023/12/11 10:48:37;;;;;;;11.82;2.40;;;9.30;99.90;;;;;;5004627;28;20036;-84
2023/12/11 10:51:06;;;;;;;11.55;2.83;;;9.30;99.90;;;;;;5022248;28;20041;-80
2023/12/11 10:53:35;;;;;;;15.88;2.80;;;9.40;99.90;;;;;;5024035;28;20523;-82
2023/12/11 10:56:02;;;;;;;13.73;2.03;;;9.50;99.90;;;;;;5017573;28;20021;-79
2023/12/11 10:58:28;;;;;;;11.52;2.25;;;9.50;99.90;;;;;;5020827;28;20033;-89
2023/12/11 11:00:56;;;;;;;26.35;3.05;;;9.50;99.90;;;;;;5014026;28;20030;-89
2023/12/11 11:03:23;;;;;;;8.20;1.95;;;9.60;99.90;;;;;;5024945;28;20029;-81
2023/12/11 11:05:51;;;;;;;20.60;2.10;;;9.60;99.90;;;;;;5024620;28;20450;-90
2023/12/11 11:08:26;;;;;;;9.30;2.08;;;9.60;99.90;;;;;;5019887;28;20056;-89
2023/12/11 11:11:12;;;;;;;6.90;1.77;;;9.70;99.90;;;;;;5018067;28;20048;-84
2023/12/11 11:14:02;;;;;;;;;;;9.80;99.90;;;;;;5020613;28;20029;-82
2023/12/11 11:16:53;;;;;;;64.30;27.92;;;9.80;99.90;;;;;;5016439;28;20361;-81
2023/12/11 11:19:20;;;;;;;10.90;2.25;;;9.70;99.90;;;;;;5022171;28;20083;-92
2023/12/11 11:22:08;;;;;;;10.93;1.70;;;9.70;99.90;;;;;;5025919;28;20485;-82
2023/12/11 11:24:35;;;;;;;9.90;2.38;;;9.70;99.90;;;;;;5007702;28;20491;-85
2023/12/11 11:27:23;;;;;;;9.20;2.13;;;9.70;99.90;;;;;;5018650;28;21440;-84
2023/12/11 11:29:49;;;;;;;11.00;1.85;;;9.70;99.90;;;;;;5022479;28;20033;-87
2023/12/11 11:32:17;;;;;;;8.85;2.22;;;9.70;99.90;;;;;;5018010;28;20425;-83
2023/12/11 11:34:45;;;;;;;9.85;2.35;;;9.70;99.90;;;;;;5015221;28;20041;-87
2023/12/11 11:37:17;;;;;;;16.90;3.30;;;9.70;99.90;;;;;;5016347;28;20487;-84
2023/12/11 11:39:55;;;;;;;16.98;3.47;;;9.80;99.90;;;;;;5016992;28;20068;-82
2023/12/11 11:42:25;;;;;;;14.82;3.53;;;9.70;99.90;;;;;;5005383;28;20053;-86
2023/12/11 11:44:58;;;;;;;21.77;2.95;;;9.70;99.90;;;;;;5020357;28;20030;-88
2023/12/11 11:47:28;;;;;;;17.50;4.32;;;9.80;99.90;;;;;;5023445;28;20056;-84
2023/12/11 11:49:53;;;;;;;9.27;2.15;;;9.70;99.90;;;;;;5006406;28;20063;-86
2023/12/11 11:52:26;;;;;;;19.52;6.45;;;9.80;99.90;;;;;;5022519;28;20029;-89
2023/12/11 11:54:59;;;;;;;10.70;3.10;;;9.70;99.90;;;;;;5025562;28;20037;-82
2023/12/11 11:57:28;;;;;;;13.20;3.90;;;9.70;99.90;;;;;;5024164;28;20022;-89
2023/12/11 11:59:54;;;;;;;17.67;3.65;;;9.70;99.90;;;;;;5018092;28;20220;-82
2023/12/11 12:02:24;;;;;;;12.68;3.08;;;9.70;99.90;;;;;;5024067;28;20078;-86
2023/12/11 12:04:50;;;;;;;10.63;2.53;;;9.70;99.90;;;;;;5022399;28;20072;-82
2023/12/11 12:07:16;;;;;;;9.68;2.22;;;9.70;99.90;;;;;;5022914;28;20057;-82
2023/12/11 12:09:42;;;;;;;9.93;2.10;;;9.60;99.90;;;;;;5017389;28;20033;-88
2023/12/11 12:12:14;;;;;;;13.20;2.80;;;9.60;99.90;;;;;;5006276;28;20434;-82
2023/12/11 12:14:40;;;;;;;12.25;2.15;;;9.60;99.90;;;;;;5020923;28;20311;-88
2023/12/11 12:17:10;;;;;;;16.77;4.53;;;9.60;99.90;;;;;;5022425;28;20437;-86
2023/12/11 12:19:36;;;;;;;14.40;3.10;;;9.50;99.90;;;;;;5017914;28;20464;-87
2023/12/11 12:22:02;;;;;;;8.77;2.33;;;9.50;99.90;;;;;;5022650;28;20029;-82
2023/12/11 12:24:28;;;;;;;9.05;2.42;;;9.40;99.90;;;;;;5018861;28;20030;-81
2023/12/11 12:27:01;;;;;;;15.18;2.40;;;9.40;99.90;;;;;;5018969;28;20025;-83
2023/12/11 12:29:31;;;;;;;16.13;2.53;;;9.40;99.90;;;;;;5016133;28;20026;-87
2023/12/11 12:32:00;;;;;;;17.60;2.83;;;9.40;99.90;;;;;;5015216;28;20029;-86
2023/12/11 12:34:29;;;;;;;12.10;2.55;;;9.40;99.90;;;;;;5025737;28;20018;-83
2023/12/11 12:36:56;;;;;;;11.20;2.38;;;9.40;99.90;;;;;;5023157;28;20025;-83
2023/12/11 12:39:22;;;;;;;16.67;2.35;;;9.30;99.90;;;;;;5015178;28;20105;-83
2023/12/11 12:41:50;;;;;;;5.63;1.70;;;9.30;99.90;;;;;;5024913;28;20091;-80
2023/12/11 12:44:20;;;;;;;9.10;2.45;;;9.20;99.90;;;;;;4994240;28;20034;-95
2023/12/11 12:46:55;;;;;;;12.15;1.92;;;9.20;99.90;;;;;;5020123;28;20072;-85